Time;durP1;ratioP1;P1;durP2;ratioP2;P2;SDS_P1;SDS_P2;PMS_P1;PMS_P2;Temp;Humidity;BMP_temperature;BMP_pressure;BME280_temperature;BME280_humidity;BME280_pressure;Samples;Min_cycle;Max_cycle;Signal;HPM_P1;HPM_P2
2022/08/08 00:01:30;;;;;;;3.72;1.70;;;;;;;;;;5014320;28;20038;-89
2022/08/08 00:04:06;;;;;;;4.13;1.80;;;;;;;;;;4976328;28;20034;-89
2022/08/08 00:06:32;;;;;;;5.15;2.28;;;;;;;;;;4994555;28;20481;-90
2022/08/08 00:09:42;;;;;;;4.75;2.03;;;;;;;;;;4993218;28;20034;-89
2022/08/08 00:12:09;;;;;;;4.18;2.00;;;;;;;;;;4934774;28;20043;-89
2022/08/08 00:14:35;;;;;;;3.75;1.83;;;;;;;;;;4922119;29;20086;-90
2022/08/08 00:17:18;;;;;;;3.83;1.80;;;;;;;;;;4939296;29;20468;-91
2022/08/08 00:19:49;;;;;;;3.58;1.80;;;;;;;;;;4928488;29;20082;-89
2022/08/08 00:22:24;;;;;;;3.58;1.90;;;;;;;;;;4925974;29;20055;-90
2022/08/08 00:24:58;;;;;;;4.05;1.70;;;;;;;;;;4920019;29;20496;-89
2022/08/08 00:27:24;;;;;;;4.82;2.28;;;;;;;;;;4927629;29;20043;-88
2022/08/08 00:29:59;;;;;;;4.90;1.98;;;;;;;;;;4912505;29;20065;-89
2022/08/08 00:32:33;;;;;;;3.80;1.90;;;;;;;;;;4941063;28;20593;-89
2022/08/08 00:35:29;;;;;;;4.53;2.10;;;;;;;;;;4922505;29;20058;-89
2022/08/08 00:38:06;;;;;;;5.50;1.83;;;;;;;;;;4934113;28;20135;-90
2022/08/08 00:40:37;;;;;;;4.47;1.88;;;;;;;;;;4922633;29;20074;-89
2022/08/08 00:43:21;;;;;;;4.65;1.80;;;;;;;;;;4973237;28;20501;-89
2022/08/08 00:46:00;;;;;;;4.20;1.90;;;;;;;;;;4994417;28;20087;-89
2022/08/08 00:49:10;;;;;;;4.93;1.90;;;;;;;;;;5010221;28;20109;-88
2022/08/08 00:52:27;;;;;;;4.07;1.80;;;;;;;;;;5001789;28;20053;-89
2022/08/08 00:55:09;;;;;;;5.45;1.90;;;;;;;;;;4900211;29;20044;-88
2022/08/08 00:57:49;;;;;;;5.20;2.28;;;;;;;;;;5001597;28;20184;-89
2022/08/08 01:00:20;;;;;;;5.00;1.85;;;;;;;;;;5013177;28;20033;-89
2022/08/08 01:02:50;;;;;;;3.85;1.83;;;;;;;;;;4981065;28;20038;-89
2022/08/08 01:05:47;;;;;;;3.92;2.20;;;;;;;;;;4990464;28;20156;-90
2022/08/08 01:08:33;;;;;;;3.60;1.90;;;;;;;;;;4994177;28;20084;-90
2022/08/08 01:11:20;;;;;;;5.00;2.00;;;;;;;;;;4992655;28;20095;-88
2022/08/08 01:14:16;;;;;;;4.88;2.03;;;;;;;;;;4991379;28;20506;-89
2022/08/08 01:17:06;;;;;;;3.95;2.17;;;;;;;;;;4995268;28;20137;-90
2022/08/08 01:19:44;;;;;;;4.30;2.10;;;;;;;;;;5010383;28;20453;-90
2022/08/08 01:22:21;;;;;;;3.60;2.15;;;;;;;;;;5013569;28;20077;-91
2022/08/08 01:25:40;;;;;;;4.40;2.03;;;;;;;;;;5012336;28;20038;-90
2022/08/08 01:28:14;;;;;;;4.50;1.90;;;;;;;;;;4947918;28;20035;-89
2022/08/08 01:30:45;;;;;;;4.50;1.90;;;;;;;;;;4961842;28;20131;-89
2022/08/08 01:33:31;;;;;;;3.35;1.73;;;;;;;;;;4964480;28;20159;-89
2022/08/08 01:36:34;;;;;;;4.65;2.08;;;;;;;;;;4964430;28;20034;-90
2022/08/08 01:39:26;;;;;;;5.30;1.90;;;;;;;;;;4962911;28;20051;-90
2022/08/08 01:42:14;;;;;;;3.92;2.00;;;;;;;;;;4956929;28;20045;-90
2022/08/08 01:44:53;;;;;;;4.40;2.10;;;;;;;;;;4952513;28;20039;-89
2022/08/08 01:48:06;;;;;;;4.55;1.85;;;;;;;;;;4967418;28;20050;-90
2022/08/08 01:50:58;;;;;;;3.58;2.00;;;;;;;;;;4917175;28;20341;-88
2022/08/08 01:53:32;;;;;;;4.18;1.83;;;;;;;;;;4968477;28;20089;-89
2022/08/08 01:56:32;;;;;;;4.93;2.15;;;;;;;;;;4967281;28;20049;-89
2022/08/08 01:59:25;;;;;;;3.30;1.77;;;;;;;;;;4968859;28;20042;-89
2022/08/08 02:02:10;;;;;;;3.92;1.80;;;;;;;;;;4991366;28;20034;-91
2022/08/08 02:04:45;;;;;;;3.88;1.90;;;;;;;;;;4984053;28;20077;-89
2022/08/08 02:07:29;;;;;;;4.63;1.95;;;;;;;;;;4990710;28;20058;-91
2022/08/08 02:10:02;;;;;;;3.85;1.88;;;;;;;;;;4999771;28;20124;-89
2022/08/08 02:12:59;;;;;;;4.05;2.05;;;;;;;;;;5016063;28;20100;-88
2022/08/08 02:15:35;;;;;;;4.20;1.90;;;;;;;;;;4966204;28;20408;-90
2022/08/08 02:18:15;;;;;;;4.20;1.92;;;;;;;;;;4982668;28;20038;-92
2022/08/08 02:24:14;;;;;;;5.30;1.92;;;;;;;;;;4987624;28;20117;-91
2022/08/08 02:26:49;;;;;;;4.25;1.92;;;;;;;;;;4994099;28;20040;-88
2022/08/08 02:29:25;;;;;;;4.05;2.00;;;;;;;;;;4983670;28;20023;-88
2022/08/08 02:32:12;;;;;;;3.90;2.00;;;;;;;;;;4974261;28;20047;-89
2022/08/08 02:35:02;;;;;;;4.43;2.00;;;;;;;;;;4999138;28;20092;-89
2022/08/08 02:37:51;;;;;;;3.88;2.10;;;;;;;;;;4988531;28;20450;-90
2022/08/08 02:40:35;;;;;;;3.00;1.83;;;;;;;;;;4981180;28;20121;-90
2022/08/08 02:43:24;;;;;;;3.72;1.90;;;;;;;;;;4993919;28;20042;-91
2022/08/08 02:46:18;;;;;;;5.10;2.05;;;;;;;;;;4977383;28;20039;-89
2022/08/08 02:48:54;;;;;;;3.60;1.98;;;;;;;;;;4991576;28;20204;-89
2022/08/08 02:51:42;;;;;;;3.78;2.00;;;;;;;;;;4980326;28;20034;-90
2022/08/08 02:54:19;;;;;;;6.32;2.40;;;;;;;;;;4984237;28;20030;-90
2022/08/08 02:57:02;;;;;;;4.40;2.35;;;;;;;;;;4981194;28;20042;-89
2022/08/08 02:59:37;;;;;;;4.38;1.83;;;;;;;;;;4998692;28;20041;-88
2022/08/08 03:02:24;;;;;;;5.95;2.13;;;;;;;;;;4997460;28;20051;-90
2022/08/08 03:04:50;;;;;;;3.53;1.55;;;;;;;;;;4982453;28;20502;-90
2022/08/08 03:07:27;;;;;;;3.75;1.98;;;;;;;;;;4979422;28;20037;-90
2022/08/08 03:10:23;;;;;;;4.47;2.42;;;;;;;;;;4996196;28;20038;-90
2022/08/08 03:12:52;;;;;;;4.07;1.83;;;;;;;;;;4990696;28;20037;-89
2022/08/08 03:15:39;;;;;;;4.43;2.10;;;;;;;;;;4983974;28;20056;-91
2022/08/08 03:18:17;;;;;;;4.57;2.00;;;;;;;;;;4996963;28;20158;-90
2022/08/08 03:20:49;;;;;;;4.75;1.98;;;;;;;;;;4970141;28;20049;-89
2022/08/08 03:23:16;;;;;;;4.63;2.28;;;;;;;;;;4995140;28;20065;-90
2022/08/08 03:25:44;;;;;;;4.45;1.88;;;;;;;;;;4965092;28;20037;-89
2022/08/08 03:28:15;;;;;;;3.75;1.67;;;;;;;;;;4972418;28;20124;-89
2022/08/08 03:30:46;;;;;;;5.63;2.10;;;;;;;;;;4979679;28;20038;-89
2022/08/08 03:33:17;;;;;;;4.93;2.05;;;;;;;;;;4982564;28;20045;-90
2022/08/08 03:35:47;;;;;;;4.82;2.30;;;;;;;;;;4964467;28;20038;-90
2022/08/08 03:38:13;;;;;;;4.50;2.08;;;;;;;;;;4961545;28;20565;-90
2022/08/08 03:40:39;;;;;;;4.65;2.20;;;;;;;;;;4970002;28;20031;-89
2022/08/08 03:43:09;;;;;;;6.55;2.10;;;;;;;;;;4981822;28;20044;-90
2022/08/08 03:45:35;;;;;;;5.10;2.55;;;;;;;;;;4980145;28;20034;-89
2022/08/08 03:48:03;;;;;;;5.38;2.15;;;;;;;;;;4964085;28;20030;-89
2022/08/08 03:50:31;;;;;;;5.55;2.30;;;;;;;;;;4995029;28;20038;-88
2022/08/08 03:53:05;;;;;;;5.40;2.40;;;;;;;;;;4979011;28;20045;-89
2022/08/08 03:55:30;;;;;;;6.30;2.20;;;;;;;;;;4986454;28;20401;-87
2022/08/08 03:57:56;;;;;;;4.45;2.35;;;;;;;;;;4972061;28;20035;-88
2022/08/08 04:00:24;;;;;;;5.38;2.10;;;;;;;;;;4965086;28;20034;-89
2022/08/08 04:02:58;;;;;;;5.03;1.80;;;;;;;;;;4976203;28;20034;-89
2022/08/08 04:05:34;;;;;;;4.60;2.30;;;;;;;;;;4977646;28;20038;-90
2022/08/08 04:08:01;;;;;;;5.45;2.60;;;;;;;;;;4978889;28;20030;-89
2022/08/08 04:10:28;;;;;;;4.50;2.15;;;;;;;;;;4970148;28;20046;-89
2022/08/08 04:12:54;;;;;;;3.70;2.13;;;;;;;;;;4965705;28;20034;-89
2022/08/08 04:15:19;;;;;;;5.30;2.13;;;;;;;;;;4987918;28;20041;-89
2022/08/08 04:17:45;;;;;;;5.03;2.53;;;;;;;;;;4983337;28;20404;-90
2022/08/08 04:20:10;;;;;;;4.35;2.38;;;;;;;;;;4978826;28;20090;-90
2022/08/08 04:22:36;;;;;;;4.78;2.28;;;;;;;;;;4984615;28;20025;-89
2022/08/08 04:25:02;;;;;;;5.55;2.22;;;;;;;;;;4989674;28;20449;-89
2022/08/08 04:27:27;;;;;;;4.72;2.30;;;;;;;;;;4998047;28;20800;-89
2022/08/08 04:29:52;;;;;;;5.20;2.20;;;;;;;;;;4997761;28;20034;-89
2022/08/08 04:32:18;;;;;;;4.32;2.10;;;;;;;;;;4996033;28;20043;-90
2022/08/08 04:34:43;;;;;;;4.57;2.08;;;;;;;;;;4989952;28;20087;-89
2022/08/08 04:37:10;;;;;;;5.30;2.25;;;;;;;;;;4987464;28;20064;-90
2022/08/08 04:39:36;;;;;;;4.77;2.23;;;;;;;;;;4981470;28;20088;-89
2022/08/08 04:42:01;;;;;;;4.13;2.17;;;;;;;;;;4986273;28;20030;-89
2022/08/08 04:44:27;;;;;;;4.25;2.28;;;;;;;;;;4990806;28;20038;-90
2022/08/08 04:46:53;;;;;;;6.63;2.78;;;;;;;;;;4989989;28;20454;-90
2022/08/08 04:49:18;;;;;;;4.43;2.22;;;;;;;;;;4983746;28;20068;-89
2022/08/08 04:51:43;;;;;;;6.22;2.10;;;;;;;;;;5014054;28;20152;-88
2022/08/08 04:54:09;;;;;;;5.53;2.15;;;;;;;;;;4984738;28;20056;-88
2022/08/08 04:56:34;;;;;;;5.40;2.38;;;;;;;;;;4989340;28;20037;-89
2022/08/08 04:59:00;;;;;;;7.22;2.38;;;;;;;;;;4983751;28;20391;-90
2022/08/08 05:01:25;;;;;;;5.63;2.25;;;;;;;;;;4983336;28;20215;-89
2022/08/08 05:03:51;;;;;;;6.80;2.33;;;;;;;;;;4977418;28;20033;-90
2022/08/08 05:06:16;;;;;;;5.97;2.17;;;;;;;;;;4984849;28;20563;-90
2022/08/08 05:08:42;;;;;;;4.85;2.30;;;;;;;;;;4999504;28;20498;-89
2022/08/08 05:11:08;;;;;;;5.82;2.20;;;;;;;;;;4981469;28;20033;-89
2022/08/08 05:13:33;;;;;;;4.40;2.20;;;;;;;;;;4982655;28;20036;-90
2022/08/08 05:15:59;;;;;;;6.75;2.30;;;;;;;;;;4988302;28;20045;-91
2022/08/08 05:18:24;;;;;;;4.13;1.95;;;;;;;;;;4989778;28;20033;-90
2022/08/08 05:20:49;;;;;;;6.50;2.35;;;;;;;;;;4990137;28;20057;-90
2022/08/08 05:23:15;;;;;;;4.78;2.30;;;;;;;;;;4996395;28;20980;-90
2022/08/08 05:25:40;;;;;;;3.67;1.92;;;;;;;;;;4995407;28;20049;-89
2022/08/08 05:28:05;;;;;;;5.93;2.10;;;;;;;;;;5001734;28;20113;-91
2022/08/08 05:30:31;;;;;;;13.98;3.30;;;;;;;;;;4986093;28;20036;-90
2022/08/08 05:32:56;;;;;;;6.78;2.42;;;;;;;;;;4997611;28;20406;-91
2022/08/08 05:35:22;;;;;;;4.15;2.05;;;;;;;;;;4986292;28;20037;-89
2022/08/08 05:37:53;;;;;;;4.20;2.25;;;;;;;;;;5002313;28;20573;-91
2022/08/08 05:40:19;;;;;;;6.35;2.50;;;;;;;;;;5004948;28;20506;-90
2022/08/08 05:42:50;;;;;;;5.70;2.13;;;;;;;;;;4985038;28;20049;-92
2022/08/08 05:45:16;;;;;;;4.72;2.30;;;;;;;;;;5018106;28;20551;-92
2022/08/08 05:47:42;;;;;;;9.00;2.30;;;;;;;;;;4998385;28;20061;-90
2022/08/08 05:50:08;;;;;;;6.32;2.10;;;;;;;;;;4994874;28;20084;-89
2022/08/08 05:52:35;;;;;;;4.55;1.90;;;;;;;;;;5000142;28;20146;-88
2022/08/08 05:55:04;;;;;;;3.78;1.60;;;;;;;;;;5006094;28;20128;-87
2022/08/08 05:57:33;;;;;;;4.07;1.85;;;;;;;;;;5004105;28;20068;-89
2022/08/08 06:00:02;;;;;;;4.25;2.20;;;;;;;;;;5007700;28;20401;-88
2022/08/08 06:05:17;;;;;;;5.53;2.10;;;;;;;;;;5019056;28;20087;-88
2022/08/08 06:07:45;;;;;;;3.95;1.90;;;;;;;;;;4985696;28;20038;-90
2022/08/08 06:10:11;;;;;;;4.28;1.92;;;;;;;;;;4986668;28;20489;-82
2022/08/08 06:12:37;;;;;;;10.65;4.65;;;;;;;;;;4996504;28;20040;-83
2022/08/08 06:15:05;;;;;;;6.10;1.98;;;;;;;;;;4994551;28;20501;-83
2022/08/08 06:17:35;;;;;;;3.47;1.63;;;;;;;;;;4993663;28;20121;-83
2022/08/08 06:20:09;;;;;;;5.63;2.35;;;;;;;;;;5010963;28;20505;-84
2022/08/08 06:22:35;;;;;;;8.07;2.38;;;;;;;;;;4990148;28;20041;-93
2022/08/08 06:25:02;;;;;;;4.03;2.00;;;;;;;;;;4999467;28;20713;-91
2022/08/08 06:27:41;;;;;;;4.82;1.90;;;;;;;;;;4970895;28;20031;-90
2022/08/08 06:30:09;;;;;;;6.63;2.00;;;;;;;;;;5000154;28;20036;-91
2022/08/08 06:32:58;;;;;;;4.82;1.98;;;;;;;;;;5000489;28;20095;-92
2022/08/08 06:35:24;;;;;;;3.10;1.52;;;;;;;;;;5006796;28;20040;-93
2022/08/08 06:37:57;;;;;;;6.47;2.03;;;;;;;;;;4989888;28;20034;-93
2022/08/08 06:40:28;;;;;;;4.03;1.77;;;;;;;;;;4987286;28;20030;-91
2022/08/08 06:43:06;;;;;;;5.50;2.00;;;;;;;;;;4989819;28;20045;-91
2022/08/08 06:45:32;;;;;;;2.90;1.60;;;;;;;;;;4998548;28;20033;-92
2022/08/08 06:47:59;;;;;;;9.85;2.47;;;;;;;;;;5015741;28;20410;-93
2022/08/08 06:50:24;;;;;;;4.03;1.63;;;;;;;;;;5013554;28;20180;-91
2022/08/08 06:52:56;;;;;;;4.85;2.00;;;;;;;;;;4986068;28;20093;-91
2022/08/08 06:55:24;;;;;;;4.05;1.92;;;;;;;;;;4998725;28;20347;-92
2022/08/08 06:57:50;;;;;;;6.90;2.28;;;;;;;;;;4998981;28;20102;-94
2022/08/08 07:00:15;;;;;;;4.38;1.85;;;;;;;;;;4989751;28;20025;-91
2022/08/08 07:02:45;;;;;;;4.57;1.90;;;;;;;;;;4987686;28;20042;-91
2022/08/08 07:05:15;;;;;;;4.78;1.75;;;;;;;;;;4991465;28;20054;-92
2022/08/08 07:07:55;;;;;;;4.22;1.85;;;;;;;;;;4996287;28;20045;-91
2022/08/08 07:10:22;;;;;;;9.75;5.00;;;;;;;;;;5012248;28;20388;-84
2022/08/08 07:12:59;;;;;;;7.75;1.77;;;;;;;;;;4999284;28;20038;-84
2022/08/08 07:15:33;;;;;;;4.00;1.90;;;;;;;;;;4995895;28;20497;-84
2022/08/08 07:18:04;;;;;;;3.78;1.90;;;;;;;;;;4997478;28;20037;-84
2022/08/08 07:20:31;;;;;;;4.70;2.05;;;;;;;;;;4996516;28;20100;-83
2022/08/08 07:23:05;;;;;;;4.82;1.80;;;;;;;;;;4982094;28;20113;-84
2022/08/08 07:25:33;;;;;;;4.53;1.60;;;;;;;;;;5004131;28;20444;-84
2022/08/08 07:28:03;;;;;;;4.93;1.65;;;;;;;;;;4979695;28;20053;-84
2022/08/08 07:30:29;;;;;;;4.63;1.98;;;;;;;;;;4998529;28;20041;-81
2022/08/08 07:32:55;;;;;;;3.90;1.70;;;;;;;;;;4988092;28;20041;-84
2022/08/08 07:35:21;;;;;;;4.35;1.98;;;;;;;;;;4975300;28;20395;-88
2022/08/08 07:37:48;;;;;;;4.35;1.70;;;;;;;;;;5014946;28;20497;-84
2022/08/08 07:40:15;;;;;;;4.45;1.90;;;;;;;;;;4999549;28;20041;-91
2022/08/08 07:42:42;;;;;;;3.80;1.80;;;;;;;;;;4988902;28;20501;-89
2022/08/08 07:45:07;;;;;;;5.88;1.98;;;;;;;;;;5002231;28;20033;-92
2022/08/08 07:47:33;;;;;;;5.50;2.25;;;;;;;;;;4989502;28;20068;-87
2022/08/08 07:49:59;;;;;;;4.85;1.80;;;;;;;;;;4992099;28;20061;-85
2022/08/08 07:52:24;;;;;;;4.15;1.60;;;;;;;;;;4988518;28;20038;-89
2022/08/08 07:55:21;;;;;;;;;;;;;;;;;;;;;
2022/08/08 07:58:20;;;;;;;6.07;1.80;;;;;;;;;;4965221;28;21507;-87
2022/08/08 08:01:02;;;;;;;4.50;1.70;;;;;;;;;;4982273;28;20053;-88
2022/08/08 08:03:35;;;;;;;5.60;2.10;;;;;;;;;;4986023;28;20516;-89
2022/08/08 08:06:07;;;;;;;6.53;2.20;;;;;;;;;;4962416;28;20513;-88
2022/08/08 08:08:47;;;;;;;6.22;1.80;;;;;;;;;;5011875;28;20033;-88
2022/08/08 08:11:14;;;;;;;4.93;1.52;;;;;;;;;;5011456;28;20030;-87
2022/08/08 08:13:45;;;;;;;5.60;1.60;;;;;;;;;;4998091;28;20042;-87
2022/08/08 08:16:21;;;;;;;4.95;1.67;;;;;;;;;;5000349;28;20069;-88
2022/08/08 08:18:52;;;;;;;4.95;1.67;;;;;;;;;;4985007;28;20052;-88
2022/08/08 08:21:18;;;;;;;4.43;1.80;;;;;;;;;;4997008;28;20509;-89
2022/08/08 08:23:43;;;;;;;5.68;1.88;;;;;;;;;;4994727;28;20045;-88
2022/08/08 08:26:10;;;;;;;6.15;1.80;;;;;;;;;;4989414;28;20378;-89
2022/08/08 08:28:35;;;;;;;4.43;1.70;;;;;;;;;;4981726;28;20041;-88
2022/08/08 08:31:04;;;;;;;6.57;1.95;;;;;;;;;;4985167;28;20646;-89
2022/08/08 08:33:31;;;;;;;4.63;1.35;;;;;;;;;;4982312;28;20172;-89
2022/08/08 08:35:56;;;;;;;9.77;1.80;;;;;;;;;;5005436;28;20033;-87
2022/08/08 08:38:22;;;;;;;6.25;1.30;;;;;;;;;;4987382;28;20044;-88
2022/08/08 08:40:48;;;;;;;5.60;1.20;;;;;;;;;;4981161;28;20070;-88
2022/08/08 08:43:17;;;;;;;3.10;1.20;;;;;;;;;;4999594;28;20179;-89
2022/08/08 08:45:46;;;;;;;3.28;1.48;;;;;;;;;;4981060;28;20095;-88
2022/08/08 08:48:12;;;;;;;4.32;1.30;;;;;;;;;;4988411;28;20038;-89
2022/08/08 08:50:38;;;;;;;4.18;1.42;;;;;;;;;;4996007;28;20352;-87
2022/08/08 08:53:09;;;;;;;5.20;1.60;;;;;;;;;;5011932;28;20033;-87
2022/08/08 08:55:37;;;;;;;3.45;0.93;;;;;;;;;;5013787;28;20106;-89
2022/08/08 08:58:04;;;;;;;6.65;1.25;;;;;;;;;;4982075;28;20374;-88
2022/08/08 09:00:31;;;;;;;3.65;0.90;;;;;;;;;;4988911;28;20117;-88
2022/08/08 09:02:58;;;;;;;2.33;0.88;;;;;;;;;;4989038;28;20044;-88
2022/08/08 09:05:26;;;;;;;3.63;1.20;;;;;;;;;;4981728;28;20128;-89
2022/08/08 09:07:53;;;;;;;2.55;0.90;;;;;;;;;;4990282;28;20033;-89
2022/08/08 09:10:21;;;;;;;2.50;1.00;;;;;;;;;;4996713;28;20390;-87
2022/08/08 09:12:48;;;;;;;2.22;0.93;;;;;;;;;;4985328;28;20402;-88
2022/08/08 09:15:13;;;;;;;2.75;1.23;;;;;;;;;;4973682;28;20073;-92
2022/08/08 09:17:39;;;;;;;3.50;1.10;;;;;;;;;;4981153;28;20064;-89
2022/08/08 09:20:05;;;;;;;2.60;0.90;;;;;;;;;;4998258;28;20425;-90
2022/08/08 09:22:33;;;;;;;2.43;1.10;;;;;;;;;;4987067;28;20678;-89
2022/08/08 09:24:59;;;;;;;4.50;1.05;;;;;;;;;;4997121;28;20045;-89
2022/08/08 09:27:25;;;;;;;3.00;1.00;;;;;;;;;;4995200;28;20175;-89
2022/08/08 09:30:00;;;;;;;3.13;1.10;;;;;;;;;;4996122;28;20121;-88
2022/08/08 09:32:36;;;;;;;2.30;1.00;;;;;;;;;;4990822;28;20105;-88
2022/08/08 09:35:06;;;;;;;3.00;1.05;;;;;;;;;;4988098;28;20038;-88
2022/08/08 09:37:42;;;;;;;2.75;1.10;;;;;;;;;;5000308;28;20033;-89
2022/08/08 09:40:09;;;;;;;2.38;1.10;;;;;;;;;;5004893;28;20041;-91
2022/08/08 09:42:40;;;;;;;2.38;1.00;;;;;;;;;;4986069;28;20129;-90
2022/08/08 09:45:07;;;;;;;4.47;0.90;;;;;;;;;;4995445;28;20041;-90
2022/08/08 09:47:40;;;;;;;2.70;1.00;;;;;;;;;;5013503;28;20115;-88
2022/08/08 09:50:09;;;;;;;2.67;0.95;;;;;;;;;;5010896;28;20043;-88
2022/08/08 09:52:36;;;;;;;2.35;0.90;;;;;;;;;;4995574;28;20030;-90
2022/08/08 09:55:02;;;;;;;2.22;0.90;;;;;;;;;;4987556;28;20088;-89
2022/08/08 09:57:36;;;;;;;2.92;0.98;;;;;;;;;;4982275;28;20045;-88
2022/08/08 10:00:06;;;;;;;3.38;1.10;;;;;;;;;;4986957;28;20473;-89
2022/08/08 10:02:35;;;;;;;1.95;0.90;;;;;;;;;;4998411;28;20022;-89
2022/08/08 10:05:16;;;;;;;2.10;0.90;;;;;;;;;;4998249;28;20030;-88
2022/08/08 10:07:50;;;;;;;2.05;0.85;;;;;;;;;;5001614;28;20044;-89
2022/08/08 10:10:36;;;;;;;2.42;0.90;;;;;;;;;;5016184;28;20041;-88
2022/08/08 10:13:15;;;;;;;3.13;0.90;;;;;;;;;;4991286;28;20528;-88
2022/08/08 10:15:45;;;;;;;2.72;1.00;;;;;;;;;;4989764;28;20057;-88
2022/08/08 10:18:10;;;;;;;2.00;0.90;;;;;;;;;;4987625;28;20037;-89
2022/08/08 10:20:45;;;;;;;4.23;1.13;;;;;;;;;;4989782;28;20048;-91
2022/08/08 10:23:11;;;;;;;2.42;0.85;;;;;;;;;;5006454;28;20449;-90
2022/08/08 10:25:39;;;;;;;3.60;0.90;;;;;;;;;;4983213;28;20037;-89
2022/08/08 10:28:05;;;;;;;2.08;1.00;;;;;;;;;;4982979;28;20116;-88
2022/08/08 10:30:31;;;;;;;1.83;0.80;;;;;;;;;;4984284;28;20038;-88
2022/08/08 10:32:59;;;;;;;2.10;0.85;;;;;;;;;;4993057;28;20108;-89
2022/08/08 10:35:27;;;;;;;3.25;0.80;;;;;;;;;;4998760;28;20466;-89
2022/08/08 10:37:57;;;;;;;2.78;0.90;;;;;;;;;;4997960;28;20401;-89
2022/08/08 10:40:24;;;;;;;3.15;0.90;;;;;;;;;;5014832;28;20049;-89
2022/08/08 10:42:54;;;;;;;2.30;1.00;;;;;;;;;;4985856;28;20396;-89
2022/08/08 10:45:20;;;;;;;4.00;1.00;;;;;;;;;;4999855;28;20453;-90
2022/08/08 10:47:52;;;;;;;3.15;0.88;;;;;;;;;;4983319;28;20062;-91
2022/08/08 10:50:18;;;;;;;3.05;1.20;;;;;;;;;;4969036;28;20033;-90
2022/08/08 10:52:43;;;;;;;2.67;1.10;;;;;;;;;;4986711;28;20386;-89
2022/08/08 10:55:12;;;;;;;2.47;0.90;;;;;;;;;;4987123;28;20042;-88
2022/08/08 10:57:48;;;;;;;4.45;1.02;;;;;;;;;;4999569;28;20397;-87
2022/08/08 11:00:24;;;;;;;2.25;1.00;;;;;;;;;;4981179;28;20048;-88
2022/08/08 11:02:50;;;;;;;2.30;1.00;;;;;;;;;;5006735;28;20132;-88
2022/08/08 11:05:16;;;;;;;2.78;1.10;;;;;;;;;;4999188;28;20444;-88
2022/08/08 11:07:46;;;;;;;2.88;1.15;;;;;;;;;;4983957;28;20038;-89
2022/08/08 11:10:14;;;;;;;4.95;1.20;;;;;;;;;;4999917;28;20037;-87
2022/08/08 11:12:50;;;;;;;2.97;1.55;;;;;;;;;;4991055;28;20046;-87
2022/08/08 11:15:18;;;;;;;4.70;1.20;;;;;;;;;;4991218;28;20588;-88
2022/08/08 11:17:44;;;;;;;3.33;1.23;;;;;;;;;;4997647;28;20041;-88
2022/08/08 11:20:15;;;;;;;2.90;1.33;;;;;;;;;;4999210;28;20045;-89
2022/08/08 11:22:41;;;;;;;3.05;1.10;;;;;;;;;;4984128;28;20072;-89
2022/08/08 11:25:09;;;;;;;3.83;1.42;;;;;;;;;;5014066;28;20506;-88
2022/08/08 11:27:36;;;;;;;3.30;1.30;;;;;;;;;;5014781;28;20113;-87
2022/08/08 11:30:06;;;;;;;2.95;1.20;;;;;;;;;;4990299;28;20497;-88
2022/08/08 11:32:35;;;;;;;5.15;1.52;;;;;;;;;;4999406;28;20041;-88
2022/08/08 11:35:05;;;;;;;4.70;1.30;;;;;;;;;;4990895;28;20269;-88
2022/08/08 11:37:31;;;;;;;3.70;1.30;;;;;;;;;;5016018;28;20511;-88
2022/08/08 11:39:59;;;;;;;3.23;1.17;;;;;;;;;;4999542;28;20133;-87
2022/08/08 11:42:25;;;;;;;4.18;1.17;;;;;;;;;;4980049;28;20401;-87
2022/08/08 11:44:54;;;;;;;5.00;1.20;;;;;;;;;;4983437;28;20048;-86
2022/08/08 11:47:23;;;;;;;4.28;1.30;;;;;;;;;;4998928;28;20397;-86
2022/08/08 11:50:18;;;;;;;3.25;1.20;;;;;;;;;;4997787;28;20041;-87
2022/08/08 11:52:44;;;;;;;3.22;1.23;;;;;;;;;;4971683;28;20049;-90
2022/08/08 11:55:25;;;;;;;4.00;1.05;;;;;;;;;;4997855;28;20481;-87
2022/08/08 11:58:20;;;;;;;4.50;1.00;;;;;;;;;;5011066;28;20034;-88
2022/08/08 12:00:46;;;;;;;3.22;1.30;;;;;;;;;;4976214;28;20493;-87
2022/08/08 12:03:22;;;;;;;4.55;1.20;;;;;;;;;;4998560;28;20038;-90
2022/08/08 12:05:48;;;;;;;4.88;1.40;;;;;;;;;;5007490;28;20034;-88
2022/08/08 12:08:14;;;;;;;2.47;1.15;;;;;;;;;;4999043;28;20041;-87
2022/08/08 12:10:47;;;;;;;3.35;1.20;;;;;;;;;;4984254;28;20088;-86
2022/08/08 12:13:21;;;;;;;4.60;1.52;;;;;;;;;;5005767;28;20104;-87
2022/08/08 12:15:49;;;;;;;2.13;1.10;;;;;;;;;;4970772;28;20069;-87
2022/08/08 12:18:26;;;;;;;3.38;1.40;;;;;;;;;;5000276;28;20057;-90
2022/08/08 12:20:53;;;;;;;4.15;1.40;;;;;;;;;;4999290;28;20048;-88
2022/08/08 12:23:32;;;;;;;3.97;1.20;;;;;;;;;;4984273;28;20458;-87
2022/08/08 12:26:10;;;;;;;2.78;1.30;;;;;;;;;;4989102;28;20527;-88
2022/08/08 12:28:35;;;;;;;3.88;1.30;;;;;;;;;;5001682;28;20030;-88
2022/08/08 12:31:08;;;;;;;3.25;1.52;;;;;;;;;;5004500;28;20064;-88
2022/08/08 12:33:34;;;;;;;2.60;1.33;;;;;;;;;;4999974;28;20088;-89
2022/08/08 12:36:14;;;;;;;3.35;1.20;;;;;;;;;;4998281;28;20033;-93
2022/08/08 12:38:50;;;;;;;3.83;1.50;;;;;;;;;;5017248;28;20442;-90
2022/08/08 12:41:16;;;;;;;2.78;1.30;;;;;;;;;;4994924;28;20030;-88
2022/08/08 12:43:41;;;;;;;2.50;1.30;;;;;;;;;;5002586;28;20034;-87
2022/08/08 12:46:20;;;;;;;4.55;1.20;;;;;;;;;;4976004;28;20100;-94
2022/08/08 12:48:56;;;;;;;3.70;1.50;;;;;;;;;;4976572;28;20141;-87
2022/08/08 12:51:21;;;;;;;4.07;1.55;;;;;;;;;;4975967;28;20445;-86
2022/08/08 12:53:56;;;;;;;6.20;4.43;;;;;;;;;;4983052;28;20041;-84
2022/08/08 12:56:33;;;;;;;2.35;1.20;;;;;;;;;;5003238;28;20493;-84
2022/08/08 12:58:59;;;;;;;;;;;;;;;;;;4997478;28;20505;-85
2022/08/08 13:01:35;;;;;;;5.40;1.50;;;;;;;;;;4981578;28;19922;-85
2022/08/08 13:04:14;;;;;;;3.00;1.52;;;;;;;;;;4979515;28;20279;-84
2022/08/08 13:06:51;;;;;;;4.03;1.48;;;;;;;;;;4980165;28;20397;-92
2022/08/08 13:09:47;;;;;;;3.47;1.55;;;;;;;;;;5006350;28;20062;-92
2022/08/08 13:12:25;;;;;;;5.00;1.87;;;;;;;;;;4991717;28;20497;-85
2022/08/08 13:14:52;;;;;;;3.22;1.40;;;;;;;;;;4988091;28;20416;-86
2022/08/08 13:17:22;;;;;;;3.60;1.40;;;;;;;;;;4979545;28;20509;-87
2022/08/08 13:19:48;;;;;;;3.83;1.38;;;;;;;;;;4998194;28;20073;-86
2022/08/08 13:22:17;;;;;;;3.03;1.27;;;;;;;;;;4982597;28;20068;-87
2022/08/08 13:24:42;;;;;;;4.53;1.55;;;;;;;;;;4982375;28;20041;-86
2022/08/08 13:27:12;;;;;;;3.30;1.50;;;;;;;;;;5000384;28;20034;-88
2022/08/08 13:29:48;;;;;;;3.22;1.33;;;;;;;;;;5001775;28;20501;-87
2022/08/08 13:32:13;;;;;;;3.10;1.40;;;;;;;;;;5013917;28;20053;-84
2022/08/08 13:34:39;;;;;;;4.43;1.52;;;;;;;;;;5015091;28;20054;-83
2022/08/08 13:37:08;;;;;;;4.00;1.50;;;;;;;;;;4992420;28;20030;-92
2022/08/08 13:39:33;;;;;;;3.67;1.20;;;;;;;;;;5003253;28;20294;-89
2022/08/08 13:41:59;;;;;;;5.18;1.48;;;;;;;;;;4999948;28;20073;-86
2022/08/08 13:44:26;;;;;;;2.88;1.10;;;;;;;;;;4988577;28;20611;-84
2022/08/08 13:46:56;;;;;;;4.70;1.38;;;;;;;;;;4984739;28;20108;-85
2022/08/08 13:49:24;;;;;;;3.33;1.45;;;;;;;;;;4991855;28;20121;-85
2022/08/08 13:51:58;;;;;;;3.55;1.35;;;;;;;;;;5015730;28;20045;-86
2022/08/08 13:54:28;;;;;;;5.72;1.40;;;;;;;;;;5002308;28;20389;-85
2022/08/08 13:57:12;;;;;;;3.72;1.27;;;;;;;;;;5018514;28;20041;-85
2022/08/08 13:59:41;;;;;;;4.00;1.55;;;;;;;;;;4999024;28;20041;-85
2022/08/08 14:02:17;;;;;;;3.50;1.20;;;;;;;;;;4991816;28;20041;-85
2022/08/08 14:05:06;;;;;;;2.80;1.10;;;;;;;;;;5015978;28;20409;-86
2022/08/08 14:07:33;;;;;;;3.38;1.17;;;;;;;;;;5016906;28;20038;-86
2022/08/08 14:10:01;;;;;;;3.63;1.40;;;;;;;;;;4982586;28;20041;-85
2022/08/08 14:12:31;;;;;;;4.43;1.45;;;;;;;;;;5014748;28;20026;-84
2022/08/08 14:14:57;;;;;;;4.15;1.40;;;;;;;;;;4983655;28;20046;-86
2022/08/08 14:17:22;;;;;;;3.20;1.20;;;;;;;;;;5015613;28;20036;-85
2022/08/08 14:19:48;;;;;;;2.45;1.20;;;;;;;;;;4987784;28;20400;-85
2022/08/08 14:22:24;;;;;;;4.22;1.60;;;;;;;;;;4999416;28;20052;-86
2022/08/08 14:24:54;;;;;;;3.03;1.25;;;;;;;;;;4985645;28;20037;-85
2022/08/08 14:27:29;;;;;;;3.00;1.40;;;;;;;;;;4996702;28;20040;-85
2022/08/08 14:30:08;;;;;;;2.50;1.10;;;;;;;;;;5007692;28;20564;-85
2022/08/08 14:32:43;;;;;;;3.75;1.40;;;;;;;;;;5007357;28;20038;-85
2022/08/08 14:35:09;;;;;;;11.77;1.60;;;;;;;;;;4997829;28;20501;-85
2022/08/08 14:37:42;;;;;;;2.97;1.30;;;;;;;;;;4977206;28;20037;-85
2022/08/08 14:40:09;;;;;;;3.03;1.17;;;;;;;;;;4982400;28;20089;-84
2022/08/08 14:42:40;;;;;;;3.25;1.10;;;;;;;;;;4991972;28;20041;-84
2022/08/08 14:45:12;;;;;;;3.25;1.20;;;;;;;;;;5005814;28;20081;-85
2022/08/08 14:47:51;;;;;;;5.93;1.40;;;;;;;;;;4984099;28;20034;-86
2022/08/08 14:50:31;;;;;;;2.78;1.15;;;;;;;;;;4983478;28;20038;-84
2022/08/08 14:53:12;;;;;;;4.38;1.50;;;;;;;;;;4996623;28;20438;-84
2022/08/08 14:55:38;;;;;;;3.13;1.02;;;;;;;;;;4999538;28;20033;-83
2022/08/08 14:58:04;;;;;;;3.58;1.38;;;;;;;;;;4999780;28;20535;-84
2022/08/08 15:00:31;;;;;;;3.25;1.15;;;;;;;;;;4983250;28;20473;-84
2022/08/08 15:02:58;;;;;;;3.57;1.30;;;;;;;;;;4991003;28;20041;-85
2022/08/08 15:05:24;;;;;;;2.90;1.10;;;;;;;;;;5003430;28;20299;-85
2022/08/08 15:07:50;;;;;;;2.83;1.37;;;;;;;;;;4998251;28;20030;-84
2022/08/08 15:10:16;;;;;;;2.72;1.30;;;;;;;;;;4998991;28;20277;-86
2022/08/08 15:12:44;;;;;;;3.05;1.25;;;;;;;;;;4991094;28;20501;-86
2022/08/08 15:15:10;;;;;;;3.10;1.30;;;;;;;;;;5007236;28;20124;-89
2022/08/08 15:17:36;;;;;;;2.72;1.00;;;;;;;;;;4989908;28;20040;-88
2022/08/08 15:20:03;;;;;;;10.00;6.87;;;;;;;;;;4990057;28;20034;-91